Time,TemperatureF,DewpointF,PressureIn,WindDirection,WindDirectionDegrees,WindSpeedMPH,WindSpeedGustMPH,Humidity,HourlyPrecipIn,Conditions,Clouds,dailyrainin,SoftwareType,DateUTC
2013-06-19 00:05:00,66.0,65.7,29.99,West,266,0.0,0.0,99,0.00,RA,,0.00,WeatherDisplay:10.37,2013-06-19 05:05:00,
2013-06-19 00:10:00,66.0,65.7,29.99,West,266,0.0,3.0,99,0.00,RA,,0.00,WeatherDisplay:10.37,2013-06-19 05:10:00,
2013-06-19 00:45:00,65.7,65.4,30.00,West,266,0.0,0.0,99,0.00,CLR,,0.00,WeatherDisplay:10.37,2013-06-19 05:45:00,
2013-06-19 00:51:00,65.5,65.2,30.00,West,266,0.0,0.0,99,0.00,CLR,,0.00,WeatherDisplay:10.37,2013-06-19 05:51:00,
2013-06-19 01:05:00,65.5,65.5,30.00,West,266,0.0,0.0,100,0.00,CLR,,0.00,WeatherDisplay:10.37,2013-06-19 06:05:00,
2013-06-19 01:11:00,65.5,65.5,29.99,West,266,0.0,0.0,100,0.00,CLR,,0.00,WeatherDisplay:10.37,2013-06-19 06:11:00,
2013-06-19 01:25:00,65.7,65.7,29.99,West,266,0.0,0.0,100,0.00,CLR,,0.00,WeatherDisplay:10.37,2013-06-19 06:25:00,
2013-06-19 01:30:00,65.5,65.5,29.99,West,266,0.0,0.0,100,0.00,CLR,,0.00,WeatherDisplay:10.37,2013-06-19 06:30:00,
2013-06-19 01:51:00,65.2,65.2,30.00,West,266,0.0,0.0,100,0.00,CLR,,0.00,WeatherDisplay:10.37,2013-06-19 06:51:00,
2013-06-19 02:11:00,64.9,64.9,30.00,West,266,0.0,0.0,100,0.00,CLR,,0.00,WeatherDisplay:10.37,2013-06-19 07:11:00,
2013-06-19 02:45:00,64.7,64.7,30.00,West,266,0.0,0.0,100,0.00,CLR,,0.00,WeatherDisplay:10.37,2013-06-19 07:45:00,
2013-06-19 02:51:00,64.7,64.7,30.00,West,266,0.0,0.0,100,0.00,CLR,,0.00,WeatherDisplay:10.37,2013-06-19 07:51:00,
2013-06-19 03:00:00,64.9,64.9,30.00,West,266,0.0,0.0,100,0.00,CLR,,0.00,WeatherDisplay:10.37,2013-06-19 08:00:00,
2013-06-19 03:05:00,64.9,64.9,29.99,West,266,0.0,0.0,100,0.00,CLR,,0.00,WeatherDisplay:10.37,2013-06-19 08:05:00,
2013-06-19 03:10:00,64.9,64.9,29.99,West,266,0.0,1.0,100,0.00,CLR,,0.00,WeatherDisplay:10.37,2013-06-19 08:10:00,
2013-06-19 03:25:00,64.7,64.7,30.00,West,266,0.0,2.0,100,0.00,CLR,,0.00,WeatherDisplay:10.37,2013-06-19 08:25:00,
2013-06-19 03:30:00,64.7,64.7,30.00,West,266,0.0,0.0,100,0.00,CLR,,0.00,WeatherDisplay:10.37,2013-06-19 08:30:00,
2013-06-19 03:40:00,64.5,64.6,30.00,West,266,0.0,0.0,100,0.00,CLR,,0.00,WeatherDisplay:10.37,2013-06-19 08:40:00,
2013-06-19 03:45:00,64.4,64.4,30.00,West,266,0.0,0.0,100,0.00,CLR,,0.00,WeatherDisplay:10.37,2013-06-19 08:45:00,
2013-06-19 03:50:00,64.4,64.4,30.00,West,266,0.0,0.0,100,0.00,CLR,,0.00,WeatherDisplay:10.37,2013-06-19 08:50:00,
2013-06-19 04:00:00,64.2,64.2,30.00,West,266,0.0,0.0,100,0.00,CLR,,0.00,WeatherDisplay:10.37,2013-06-19 09:00:00,
2013-06-19 04:05:00,64.2,64.2,29.99,West,266,0.0,0.0,100,0.00,CLR,,0.00,WeatherDisplay:10.37,2013-06-19 09:05:00,
2013-06-19 04:10:00,64.2,64.2,30.00,West,266,0.0,0.0,100,0.00,CLR,,0.00,WeatherDisplay:10.37,2013-06-19 09:10:00,
2013-06-19 04:15:00,64.1,64.1,30.00,West,266,0.0,0.0,100,0.00,CLR,,0.00,WeatherDisplay:10.37,2013-06-19 09:15:00,
2013-06-19 04:20:00,64.1,64.1,30.00,West,266,0.0,0.0,100,0.00,CLR,,0.00,WeatherDisplay:10.37,2013-06-19 09:20:00,
2013-06-19 04:30:00,63.9,63.9,30.00,West,266,0.0,1.0,100,0.00,CLR,,0.00,WeatherDisplay:10.37,2013-06-19 09:30:00,
2013-06-19 04:40:00,63.7,63.7,29.99,West,266,0.0,1.0,100,0.00,CLR,,0.00,WeatherDisplay:10.37,2013-06-19 09:40:00,
2013-06-19 04:45:00,63.7,63.7,29.99,West,267,0.0,4.0,100,0.00,CLR,,0.00,WeatherDisplay:10.37,2013-06-19 09:45:00,
2013-06-19 04:50:00,63.9,63.9,30.00,NNW,330,1.0,4.0,100,0.00,CLR,,0.00,WeatherDisplay:10.37,2013-06-19 09:50:00,
2013-06-19 05:00:00,63.9,63.9,29.99,NNE,19,0.0,4.0,100,0.00,CLR,,0.00,WeatherDisplay:10.37,2013-06-19 10:00:00,
2013-06-19 05:10:00,64.1,64.1,30.00,ESE,117,0.0,3.0,100,0.00,CLR,,0.00,WeatherDisplay:10.37,2013-06-19 10:10:00,
2013-06-19 05:30:00,63.7,63.7,30.00,ESE,115,0.0,3.0,100,0.00,CLR,,0.00,WeatherDisplay:10.37,2013-06-19 10:30:00,
2013-06-19 05:40:00,63.6,63.6,30.01,ESE,114,0.0,4.0,100,0.00,CLR,,0.00,WeatherDisplay:10.37,2013-06-19 10:40:00,
2013-06-19 05:50:00,63.4,63.4,30.01,ESE,111,1.0,4.0,100,0.00,CLR,,0.00,WeatherDisplay:10.37,2013-06-19 10:50:00,
2013-06-19 06:00:00,63.2,63.2,30.01,ESE,111,0.0,5.0,100,0.00,CLR,,0.00,WeatherDisplay:10.37,2013-06-19 11:00:00,
2013-06-19 06:10:00,63.1,63.1,30.01,ESE,111,0.0,4.0,100,0.00,CLR,,0.00,WeatherDisplay:10.37,2013-06-19 11:10:00,
2013-06-19 06:20:00,62.9,62.9,30.01,ESE,111,1.0,4.0,100,0.00,CLR,,0.00,WeatherDisplay:10.37,2013-06-19 11:20:00,
2013-06-19 06:30:00,62.9,62.9,30.01,ESE,107,1.0,5.0,100,0.00,CLR,,0.00,WeatherDisplay:10.37,2013-06-19 11:30:00,
2013-06-19 06:40:00,63.0,63.0,30.02,East,100,1.0,6.0,100,0.00,CLR,,0.00,WeatherDisplay:10.37,2013-06-19 11:40:00,
2013-06-19 06:50:00,63.2,63.2,30.01,East,79,3.0,6.0,100,0.00,CLR,,0.00,WeatherDisplay:10.37,2013-06-19 11:50:00,
2013-06-19 07:00:00,63.7,63.7,30.01,ESE,113,1.0,5.0,100,0.00,CLR,,0.00,WeatherDisplay:10.37,2013-06-19 12:00:00,
2013-06-19 07:05:00,63.9,63.9,30.01,East,99,2.0,5.0,100,0.00,CLR,,0.00,WeatherDisplay:10.37,2013-06-19 12:05:00,
2013-06-19 07:14:00,64.4,64.4,30.02,East,87,2.0,6.0,100,0.00,CLR,,0.00,WeatherDisplay:10.37,2013-06-19 12:14:00,
2013-06-19 07:20:00,64.5,64.5,30.01,East,80,2.0,8.0,100,0.00,CLR,,0.00,WeatherDisplay:10.37,2013-06-19 12:20:00,
2013-06-19 07:30:00,65.2,65.2,30.02,ENE,70,1.0,9.0,100,0.00,CLR,,0.00,WeatherDisplay:10.37,2013-06-19 12:30:00,
2013-06-19 07:40:00,65.8,65.8,30.01,East,85,2.0,9.0,100,0.00,CLR,,0.00,WeatherDisplay:10.37,2013-06-19 12:40:00,
2013-06-19 07:55:00,67.0,66.7,30.02,ESE,110,2.0,12.0,99,0.00,CLR,,0.00,WeatherDisplay:10.37,2013-06-19 12:55:00,
2013-06-19 08:10:00,68.3,66.8,30.02,East,94,2.0,9.0,95,0.00,CLR,,0.00,WeatherDisplay:10.37,2013-06-19 13:10:00,
2013-06-19 08:20:00,69.3,66.9,30.02,East,100,2.0,9.0,92,0.00,CLR,,0.00,WeatherDisplay:10.37,2013-06-19 13:20:00,
2013-06-19 08:44:00,72.0,68.2,30.02,ESE,104,1.0,6.0,88,0.00,CLR,,0.00,WeatherDisplay:10.37,2013-06-19 13:44:00,
2013-06-19 08:50:00,72.6,68.8,30.03,East,97,1.0,6.0,88,0.00,CLR,,0.00,WeatherDisplay:10.37,2013-06-19 13:50:00,
2013-06-19 08:59:00,73.2,69.1,30.04,East,94,1.0,4.0,87,0.00,CLR,,0.00,WeatherDisplay:10.37,2013-06-19 13:59:00,
2013-06-19 09:10:00,74.0,69.5,30.03,ESE,120,2.0,6.0,86,0.00,CLR,,0.00,WeatherDisplay:10.37,2013-06-19 14:10:00,
2013-06-19 09:20:00,74.7,69.9,30.03,ENE,76,5.0,10.0,85,0.00,CLR,,0.00,WeatherDisplay:10.37,2013-06-19 14:20:00,
2013-06-19 09:30:00,75.4,69.9,30.04,East,92,2.0,8.0,83,0.00,CLR,,0.00,WeatherDisplay:10.37,2013-06-19 14:30:00,
2013-06-19 09:40:00,75.9,70.4,30.03,SE,135,2.0,6.0,83,0.00,CLR,,0.00,WeatherDisplay:10.37,2013-06-19 14:40:00,
2013-06-19 09:50:00,76.3,70.0,30.03,SSE,152,3.0,8.0,81,0.00,CLR,,0.00,WeatherDisplay:10.37,2013-06-19 14:50:00,
2013-06-19 09:59:00,76.5,69.5,30.03,SSW,196,3.0,8.0,79,0.00,CLR,,0.00,WeatherDisplay:10.37,2013-06-19 14:59:00,
2013-06-19 10:10:00,77.2,69.8,30.03,East,95,3.0,8.0,78,0.00,CLR,,0.00,WeatherDisplay:10.37,2013-06-19 15:10:00,
2013-06-19 10:19:00,77.3,69.1,30.03,SSE,163,1.0,9.0,76,0.00,CLR,,0.00,WeatherDisplay:10.37,2013-06-19 15:19:00,
2013-06-19 10:29:00,77.5,69.7,30.03,SE,127,2.0,8.0,77,0.00,CLR,,0.00,WeatherDisplay:10.37,2013-06-19 15:29:00,
2013-06-19 10:39:00,78.0,70.2,30.03,ESE,107,1.0,6.0,77,0.00,FEW,,0.00,WeatherDisplay:10.37,2013-06-19 15:39:00,
2013-06-19 10:49:00,78.6,70.0,30.03,ESE,107,3.0,8.0,75,0.00,FEW,,0.00,WeatherDisplay:10.37,2013-06-19 15:49:00,
2013-06-19 10:59:00,79.2,69.8,30.02,South,184,2.0,10.0,73,0.00,FEW,,0.00,WeatherDisplay:10.37,2013-06-19 15:59:00,
2013-06-19 11:04:00,79.1,69.7,30.02,SW,215,2.0,6.0,73,0.00,CLR,,0.00,WeatherDisplay:10.37,2013-06-19 16:04:00,
2013-06-19 11:14:00,79.7,70.3,30.02,SSE,162,2.0,6.0,73,0.00,CLR,,0.00,WeatherDisplay:10.37,2013-06-19 16:14:00,
2013-06-19 11:19:00,79.9,70.5,30.02,SSE,166,2.0,9.0,73,0.00,CLR,,0.00,WeatherDisplay:10.37,2013-06-19 16:19:00,
2013-06-19 11:30:00,80.5,70.6,30.02,South,186,5.0,9.0,72,0.00,CLR,,0.00,WeatherDisplay:10.37,2013-06-19 16:30:00,
2013-06-19 11:39:00,80.6,71.1,30.01,East,96,2.0,8.0,73,0.00,CLR,,0.00,WeatherDisplay:10.37,2013-06-19 16:39:00,
2013-06-19 11:49:00,81.2,71.7,30.01,ENE,71,2.0,9.0,73,0.00,CLR,,0.00,WeatherDisplay:10.37,2013-06-19 16:49:00,
2013-06-19 11:59:00,81.6,70.9,30.01,SE,126,2.0,8.0,70,0.00,CLR,,0.00,WeatherDisplay:10.37,2013-06-19 16:59:00,
2013-06-19 12:04:00,81.7,71.4,30.02,ESE,123,3.0,9.0,71,0.00,CLR,,0.00,WeatherDisplay:10.37,2013-06-19 17:04:00,
2013-06-19 12:09:00,81.7,70.6,30.02,East,91,2.0,13.0,69,0.00,CLR,,0.00,WeatherDisplay:10.37,2013-06-19 17:09:00,
2013-06-19 12:19:00,82.0,71.6,30.01,ESE,104,3.0,9.0,71,0.00,CLR,,0.00,WeatherDisplay:10.37,2013-06-19 17:19:00,
2013-06-19 12:30:00,82.1,72.2,30.01,ENE,62,2.0,12.0,72,0.00,CLR,,0.00,WeatherDisplay:10.37,2013-06-19 17:30:00,
2013-06-19 12:39:00,82.2,71.8,30.01,SSE,161,2.0,8.0,71,0.00,CLR,,0.00,WeatherDisplay:10.37,2013-06-19 17:39:00,
2013-06-19 12:49:00,82.7,73.2,30.00,SW,218,1.0,12.0,73,0.00,CLR,,0.00,WeatherDisplay:10.37,2013-06-19 17:49:00,
2013-06-19 12:54:00,83.3,72.5,30.00,SE,145,5.0,8.0,70,0.00,CLR,,0.00,WeatherDisplay:10.37,2013-06-19 17:54:00,
2013-06-19 12:59:00,83.7,72.8,30.00,ESE,117,6.0,11.0,70,0.00,CLR,,0.00,WeatherDisplay:10.37,2013-06-19 17:59:00,
2013-06-19 13:10:00,83.3,70.8,29.99,South,170,3.0,8.0,66,0.00,CLR,,0.00,WeatherDisplay:10.37,2013-06-19 18:10:00,
2013-06-19 13:19:00,83.1,70.1,30.00,South,187,6.0,10.0,65,0.00,CLR,,0.00,WeatherDisplay:10.37,2013-06-19 18:19:00,
2013-06-19 13:24:00,83.1,71.0,29.99,SSW,199,2.0,5.0,67,0.00,CLR,,0.00,WeatherDisplay:10.37,2013-06-19 18:24:00,
2013-06-19 13:34:00,83.5,70.9,29.99,SSW,198,7.0,14.0,66,0.00,CLR,,0.00,WeatherDisplay:10.37,2013-06-19 18:34:00,
2013-06-19 13:39:00,83.7,71.1,29.99,South,180,2.0,10.0,66,0.00,CLR,,0.00,WeatherDisplay:10.37,2013-06-19 18:39:00,
2013-06-19 13:50:00,84.1,71.5,29.99,SE,137,3.0,8.0,66,0.00,CLR,,0.00,WeatherDisplay:10.37,2013-06-19 18:50:00,
2013-06-19 13:59:00,84.1,70.1,29.99,South,187,6.0,9.0,63,0.00,CLR,,0.00,WeatherDisplay:10.37,2013-06-19 18:59:00,
2013-06-19 14:04:00,84.1,70.1,29.99,SSW,210,6.0,11.0,63,0.00,CLR,,0.00,WeatherDisplay:10.37,2013-06-19 19:04:00,
2013-06-19 14:09:00,84.0,70.5,29.99,South,190,6.0,10.0,64,0.00,CLR,,0.00,WeatherDisplay:10.37,2013-06-19 19:09:00,
2013-06-19 14:19:00,84.8,69.9,29.98,South,190,6.0,12.0,61,0.00,FEW,,0.00,WeatherDisplay:10.37,2013-06-19 19:19:00,
2013-06-19 14:29:00,83.9,70.8,29.99,SSE,151,3.0,14.0,65,0.00,FEW,,0.00,WeatherDisplay:10.37,2013-06-19 19:29:00,
2013-06-19 14:39:00,83.9,71.3,29.98,SE,132,1.0,12.0,66,0.00,FEW,,0.00,WeatherDisplay:10.37,2013-06-19 19:39:00,
2013-06-19 14:49:00,84.3,70.3,29.98,SSE,164,3.0,10.0,63,0.00,FEW,,0.00,WeatherDisplay:10.37,2013-06-19 19:49:00,
2013-06-19 14:59:00,84.3,71.3,29.98,ESE,119,1.0,9.0,65,0.00,FEW,,0.00,WeatherDisplay:10.37,2013-06-19 19:59:00,
2013-06-19 15:09:00,84.9,69.9,29.98,SE,140,5.0,12.0,61,0.00,CLR,,0.00,WeatherDisplay:10.37,2013-06-19 20:09:00,
2013-06-19 15:19:00,84.6,71.1,29.98,South,189,3.0,9.0,64,0.00,CLR,,0.00,WeatherDisplay:10.37,2013-06-19 20:19:00,
2013-06-19 15:29:00,86.3,70.3,29.98,SSE,163,5.0,16.0,59,0.00,CLR,,0.00,WeatherDisplay:10.37,2013-06-19 20:29:00,
2013-06-19 15:34:00,86.8,70.3,29.97,South,191,6.0,12.0,58,0.00,CLR,,0.00,WeatherDisplay:10.37,2013-06-19 20:34:00,
2013-06-19 15:49:00,87.1,71.0,29.98,SE,139,3.0,10.0,59,0.00,CLR,,0.00,WeatherDisplay:10.37,2013-06-19 20:49:00,
2013-06-19 15:54:00,87.7,70.6,29.98,SSE,166,2.0,6.0,57,0.00,CLR,,0.00,WeatherDisplay:10.37,2013-06-19 20:54:00,
2013-06-19 16:09:00,86.7,69.1,29.98,SSE,152,3.0,12.0,56,0.00,FEW,,0.00,WeatherDisplay:10.37,2013-06-19 21:09:00,
2013-06-19 16:19:00,85.8,67.2,29.98,South,188,5.0,13.0,54,0.00,FEW,,0.00,WeatherDisplay:10.37,2013-06-19 21:19:00,
2013-06-19 16:34:00,86.1,68.1,29.98,South,186,3.0,11.0,55,0.00,FEW,,0.00,WeatherDisplay:10.37,2013-06-19 21:34:00,
2013-06-19 16:44:00,87.1,67.9,29.97,SSW,199,7.0,14.0,53,0.00,FEW,,0.00,WeatherDisplay:10.37,2013-06-19 21:44:00,
2013-06-19 16:49:00,87.4,69.2,29.97,South,179,3.0,12.0,55,0.00,FEW,,0.00,WeatherDisplay:10.37,2013-06-19 21:49:00,
2013-06-19 16:59:00,87.0,68.3,29.97,South,177,6.0,14.0,54,0.00,FEW,,0.00,WeatherDisplay:10.37,2013-06-19 21:59:00,
2013-06-19 17:09:00,86.3,67.7,29.97,SSE,150,5.0,12.0,54,0.00,FEW,,0.00,WeatherDisplay:10.37,2013-06-19 22:09:00,
2013-06-19 17:19:00,86.5,68.4,29.96,SSE,152,6.0,15.0,55,0.00,FEW,,0.00,WeatherDisplay:10.37,2013-06-19 22:19:00,
2013-06-19 17:29:00,86.5,67.9,29.96,South,187,5.0,10.0,54,0.00,FEW,,0.00,WeatherDisplay:10.37,2013-06-19 22:29:00,
2013-06-19 17:39:00,86.7,68.6,29.96,SSE,164,5.0,12.0,55,0.00,FEW,,0.00,WeatherDisplay:10.37,2013-06-19 22:39:00,
2013-06-19 17:54:00,85.8,67.8,29.95,SSW,193,3.0,12.0,55,0.00,FEW,,0.00,WeatherDisplay:10.37,2013-06-19 22:54:00,
2013-06-19 18:04:00,86.3,68.8,29.95,East,96,3.0,10.0,56,0.00,SCT,,0.00,WeatherDisplay:10.37,2013-06-19 23:04:00,
2013-06-19 18:09:00,86.5,68.9,29.95,SSE,163,3.0,10.0,56,0.00,SCT,,0.00,WeatherDisplay:10.37,2013-06-19 23:09:00,
2013-06-19 18:19:00,86.1,68.0,29.95,ESE,114,2.0,16.0,55,0.00,SCT,,0.00,WeatherDisplay:10.37,2013-06-19 23:19:00,
2013-06-19 18:29:00,85.8,68.8,29.94,SE,131,3.0,12.0,57,0.00,SCT,,0.00,WeatherDisplay:10.37,2013-06-19 23:29:00,
2013-06-19 18:39:00,85.8,69.3,29.95,ESE,116,3.0,10.0,58,0.00,SCT,,0.00,WeatherDisplay:10.37,2013-06-19 23:39:00,
2013-06-19 18:44:00,85.8,69.8,29.94,East,84,3.0,10.0,59,0.00,SCT,,0.00,WeatherDisplay:10.37,2013-06-19 23:44:00,
2013-06-19 18:49:00,85.8,69.3,29.94,East,93,2.0,12.0,58,0.00,SCT,,0.00,WeatherDisplay:10.37,2013-06-19 23:49:00,
2013-06-19 18:59:00,85.2,69.3,29.95,SE,131,1.0,8.0,59,0.00,SCT,,0.00,WeatherDisplay:10.37,2013-06-19 23:59:00,
2013-06-19 19:04:00,84.9,68.4,29.94,SSE,167,1.0,8.0,58,0.00,CLR,,0.00,WeatherDisplay:10.37,2013-06-20 00:04:00,
2013-06-19 19:09:00,84.7,68.3,29.94,SSE,159,2.0,8.0,58,0.00,CLR,,0.00,WeatherDisplay:10.37,2013-06-20 00:09:00,
2013-06-19 19:19:00,84.3,68.4,29.94,SSE,161,1.0,10.0,59,0.00,CLR,,0.00,WeatherDisplay:10.37,2013-06-20 00:19:00,
2013-06-19 19:29:00,83.8,68.0,29.94,SSE,156,2.0,9.0,59,0.00,FEW,,0.00,WeatherDisplay:10.37,2013-06-20 00:29:00,
2013-06-19 19:39:00,82.9,67.6,29.95,SE,142,1.0,8.0,60,0.00,FEW,,0.00,WeatherDisplay:10.37,2013-06-20 00:39:00,
2013-06-19 19:54:00,81.9,68.1,29.94,ESE,115,3.0,9.0,63,0.00,FEW,,0.00,WeatherDisplay:10.37,2013-06-20 00:54:00,
2013-06-19 19:59:00,81.7,67.4,29.95,SE,133,3.0,10.0,62,0.00,FEW,,0.00,WeatherDisplay:10.37,2013-06-20 00:59:00,
2013-06-19 20:09:00,81.3,67.9,29.95,SE,137,2.0,8.0,64,0.00,FEW,,0.00,WeatherDisplay:10.37,2013-06-20 01:09:00,
2013-06-19 20:14:00,81.0,67.7,29.94,SE,129,3.0,8.0,64,0.00,FEW,,0.00,WeatherDisplay:10.37,2013-06-20 01:14:00,
2013-06-19 20:19:00,80.8,67.9,29.94,SE,137,3.0,9.0,65,0.00,FEW,,0.00,WeatherDisplay:10.37,2013-06-20 01:19:00,
2013-06-19 20:29:00,80.5,68.1,29.95,SE,140,1.0,5.0,66,0.00,FEW,,0.00,WeatherDisplay:10.37,2013-06-20 01:29:00,
2013-06-19 20:39:00,80.1,67.7,29.95,SSE,154,1.0,10.0,66,0.00,FEW,,0.00,WeatherDisplay:10.37,2013-06-20 01:39:00,
2013-06-19 20:54:00,79.5,68.4,29.95,ESE,102,1.0,6.0,69,0.00,FEW,,0.00,WeatherDisplay:10.37,2013-06-20 01:54:00,
2013-06-19 21:04:00,79.0,68.4,29.95,ESE,103,1.0,6.0,70,0.00,FEW,,0.00,WeatherDisplay:10.37,2013-06-20 02:04:00,
2013-06-19 21:09:00,78.8,68.2,29.95,ESE,102,3.0,9.0,70,0.00,FEW,,0.00,WeatherDisplay:10.37,2013-06-20 02:09:00,